Tiempo atmosférico en la estación meteorológica de Monterrubio De La Demanda, Burgos (1190 m.)



Fecha
DESCASC
Temp. máxima en grados centígrados (hora)
DESCASC
Temp. mínima en grados centígrados (hora)
DESCASC
Temp. media en grados centígrados
DESCASC
Racha de viento máxima en m/sg (hora)
DESCASC
Velocidad máxima media en intervalos de 10 minutos(hora)
DESCASC
Precipitaciones diarias en mm
DESCASC
Precipitaciones de 00:00 a 06:00 en mm
DESCASC
Precipitaciones de 06:00 a 12:00 en mm
DESCASC
Precipitaciones de 12:00 a 18:00 en mm
DESCASC
Precipitaciones de 18:00 a 24:00 en mm
DESCASC
19-09-2019 -- (--) -- (--) -- -- (--) -- (--) -- -- -- -- 0
18-09-2019 -- (--) -- (--) -- -- (--) -- (--) -- -- -- -- --
03-10-2019 20.3 (16:20) 2.3 (00:00) 11.3 9.17 (16:00) 6.39 (18:20) 0 0 0 0 0
16-10-2019 14.4 (17:20) 7 (00:00) 10.7 11.11 (15:30) 7.5 (15:00) 0 0 0 0 0
15-10-2019 9.5 (17:40) 3 (00:00) 6.3 13.89 (01:10) 9.17 (01:10) 0.2 0.2 0 0 0
14-10-2019 18.2 (05:20) 5.3 (00:00) 11.8 16.94 (15:40) 11.11 (12:50) 9 0 0 0 9
13-10-2019 22 (15:10) 14.9 (00:00) 18.4 14.17 (14:30) 8.33 (13:50) 0 0 0 0 0
12-10-2019 22.9 (15:30) 10.5 (00:00) 16.7 16.39 (16:10) 7.22 (16:10) 0.2 0 0 0 0.2
11-10-2019 24.4 (16:10) 7 (00:00) 15.7 11.11 (15:20) 6.67 (16:50) 0.4 0 0 0 0.4
10-10-2019 21.9 (17:10) 4.2 (00:00) 13 8.33 (10:50) 6.67 (10:50) 0 0 0 0 0
09-10-2019 16.2 (15:40) 8.2 (00:00) 12.2 11.67 (18:10) 9.44 (18:10) 0 0 0 0 0
08-10-2019 25 (16:40) 6.4 (00:00) 15.7 9.44 (15:30) 5.83 (15:30) 0 0 0 0 0
07-10-2019 21.5 (16:30) 4.8 (00:00) 13.2 7.78 (14:00) 5.56 (02:20) 0 0 0 0 0
06-10-2019 20.2 (16:10) 6.3 (00:00) 13.3 11.11 (17:40) 6.67 (10:00) 0 0 0 0 0
05-10-2019 22.3 (16:20) 8.8 (00:00) 15.5 8.06 (14:30) 5.56 (16:50) 0 0 0 0 0
04-10-2019 21.5 (16:40) 3.8 (00:00) 12.6 9.72 (15:10) 6.11 (15:00) 0 0 0 0 0
02-10-2019 15.2 (15:40) 5.3 (00:00) 10.3 10.28 (12:10) 6.11 (12:10) 0 0 0 0 0
01-10-2019 19.5 (17:30) 7.7 (00:00) 13.6 12.5 (16:10) 8.06 (16:50) 0 0 0 0 0
30-09-2019 23.2 (16:10) 6.9 (00:00) 15.1 8.33 (16:50) 5.28 (14:20) 0 0 0 0 0
29-09-2019 23.1 (17:40) 4.9 (00:00) 14 11.94 (16:40) 7.78 (13:30) 0 0 0 0 0
28-09-2019 22.6 (16:20) 4.1 (00:00) 13.4 7.78 (14:30) 5.28 (17:10) 0 0 0 0 0
27-09-2019 21 (16:20) 4.1 (00:00) 12.5 10.28 (15:40) 7.22 (15:50) 0 0 0 0 0
26-09-2019 21.9 (16:50) 6.1 (00:00) 14 8.89 (16:10) 5.56 (16:20) 0 0 0 0 0
25-09-2019 16.8 (15:10) 5.9 (00:00) 11.3 7.78 (15:20) 5 (16:10) 0 0 0 0 0
24-09-2019 18 (17:20) 7 (00:00) 12.5 15 (18:10) 10 (18:10) 0 0 0 0 0
23-09-2019 18.1 (17:50) 3 (00:00) 10.6 7.78 (17:10) 5 (14:20) 0 0 0 0 0
20-09-2019 22 (12:50) 9.8 (00:00) 15.9 15 (20:00) 7.5 (19:40) 6.8 0 0 0 6.8
22-09-2019 15.7 (18:10) 6.5 (00:00) 11.1 13.33 (05:40) 7.78 (05:40) 3.2 2.2 1 0 0
21-09-2019 17 (16:00) 10.8 (00:00) 13.9 9.17 (16:20) 5.56 (13:20) 7.6 6.2 1.2 0 0.2
17-10-2019 13.8 (17:20) 8.3 (00:00) 11.1 7.78 (15:50) 5.28 (16:50) 11.8 1.8 5.4 4.6 0

Gráficas

Temp. máximas Temp. mínimas Temp. medias Precipitaciones Rachas de viento máximas Velocidades máximas media en intervalos de 10 minutos

Datos horarios

Fecha y hora oficial Temperatura (ºC) Velocidad del viento (km/h) Dirección del viento Racha (km/h) Dirección de racha Precipitación (mm) Presión (hPa) Tendencia (hPa) Humedad (%)
2019-10-17 23:00:00 12.6 15 Noroeste 23 Noroeste 0 -- -- 94
2019-10-17 22:00:00 12.4 3 Noroeste 16 Noroeste 0 -- -- 92
2019-10-17 21:00:00 12.1 5 Noroeste 13 Noroeste 0 -- -- 93
2019-10-17 20:00:00 12.1 4 Noroeste 10 Noroeste 0 -- -- 93
2019-10-17 19:00:00 13 6 Noroeste 21 Oeste 0 -- -- 91
2019-10-17 18:00:00 13.4 13 Oeste 25 Oeste 0 -- -- 92
2019-10-17 17:00:00 13.4 15 Oeste 28 Oeste 0.2 -- -- 94
2019-10-17 16:00:00 11.5 14 Oeste 28 Oeste 2 -- -- 99
2019-10-17 15:00:00 11 12 Noroeste 22 Oeste 1 -- -- 99
2019-10-17 14:00:00 10.6 13 Oeste 18 Oeste 0.8 -- -- 98
2019-10-17 13:00:00 10.1 9 Noroeste 16 Noroeste 0.6 -- -- 98
2019-10-17 12:00:00 9.7 7 Noroeste 14 Norte 0.6 -- -- 98
2019-10-17 11:00:00 9.1 8 Noroeste 14 Noroeste 1 -- -- 98
2019-10-17 10:00:00 8.6 6 Noroeste 14 Noroeste 1 -- -- 98
2019-10-17 09:00:00 8.3 9 Noroeste 16 Noroeste 0.8 -- -- 97
2019-10-17 08:00:00 8.6 8 Noroeste 12 Noroeste 1.6 -- -- 96
2019-10-17 07:00:00 8.7 0 Calma 9 Norte 0.4 -- -- 95
2019-10-17 06:00:00 8.9 0 Calma 11 Noroeste 1.8 -- -- 92
2019-10-17 05:00:00 9.5 6 Norte 17 Noroeste 0 -- -- 84
2019-10-17 04:00:00 9.6 8 Norte 17 Noroeste 0 -- -- 80
2019-10-17 03:00:00 9.8 14 Noroeste 22 Noroeste 0 -- -- 75
2019-10-17 02:00:00 10.4 12 Noroeste 18 Noroeste 0 -- -- 73
2019-10-17 01:00:00 11.1 7 Noroeste 19 Noroeste 0 -- -- 66
2019-10-17 00:00:00 11.2 11 Noroeste 15 Noroeste 0 -- -- 63
2019-10-16 23:00:00 11.1 6 Noroeste 12 Norte 0 -- -- 63
2019-10-16 22:00:00 10.6 3 Oeste 9 Noroeste 0 -- -- 71
2019-10-16 21:00:00 11.2 3 Nordeste 5 Norte 0 -- -- 71
2019-10-16 20:00:00 12.1 4 Norte 19 Noroeste 0 -- -- 62
2019-10-16 19:00:00 13.2 11 Noroeste 23 Oeste 0 -- -- 58
2019-10-16 18:00:00 13.9 16 Oeste 33 Oeste 0 -- -- 56
2019-10-16 17:00:00 13.9 17 Oeste 32 Noroeste 0 -- -- 60
2019-10-16 16:00:00 13.9 21 Oeste 40 Oeste 0 -- -- 62
2019-10-16 15:00:00 12.5 27 Noroeste 39 Oeste 0 -- -- 65
2019-10-16 14:00:00 12.5 22 Oeste 36 Oeste 0 -- -- 66
2019-10-16 13:00:00 11.2 20 Oeste 28 Oeste 0 -- -- 68
2019-10-16 12:00:00 8.9 20 Oeste 32 Oeste 0 -- -- 79
2019-10-16 11:00:00 8.5 16 Oeste 27 Oeste 0 -- -- 83
2019-10-16 10:00:00 7.5 15 Oeste 28 Oeste 0 -- -- 87
2019-10-16 09:00:00 7.2 15 Oeste 25 Oeste 0 -- -- 89
2019-10-16 08:00:00 7.2 14 Noroeste 23 Noroeste 0 -- -- 90
2019-10-16 07:00:00 7 14 Noroeste 22 Oeste 0 -- -- 88
2019-10-16 06:00:00 7 15 Noroeste 23 Oeste 0 -- -- 87
2019-10-16 05:00:00 7 14 Noroeste 19 Oeste 0 -- -- 86
2019-10-16 04:00:00 7 12 Noroeste 20 Noroeste 0 -- -- 86
2019-10-16 03:00:00 7.2 13 Noroeste 22 Oeste 0 -- -- 83
2019-10-16 02:00:00 7.4 11 Noroeste 19 Oeste 0 -- -- 81
2019-10-16 01:00:00 7.7 9 Noroeste 16 Noroeste 0 -- -- 78
2019-10-16 00:00:00 7.5 9 Norte 16 Noroeste 0 -- -- 79
2019-10-15 23:00:00 7.8 10 Noroeste 15 Noroeste 0 -- -- 77
2019-10-15 22:00:00 7.6 10 Noroeste 15 Noroeste 0 -- -- 76
2019-10-15 21:00:00 7.7 10 Noroeste 19 Noroeste 0 -- -- 73
2019-10-15 20:00:00 8.4 10 Noroeste 32 Oeste 0 -- -- 68
2019-10-15 19:00:00 9 22 Oeste 35 Oeste 0 -- -- 63
2019-10-15 18:00:00 9.2 20 Oeste 34 Oeste 0 -- -- 66
2019-10-15 17:00:00 8.7 21 Oeste 40 Noroeste 0 -- -- 67
2019-10-15 16:00:00 8.6 19 Noroeste 39 Oeste 0 -- -- 70
2019-10-15 15:00:00 8.3 22 Oeste 34 Oeste 0 -- -- 73
2019-10-15 14:00:00 6.7 19 Oeste 27 Oeste 0 -- -- 82
2019-10-15 13:00:00 5.1 12 Oeste 27 Oeste 0 -- -- 88
2019-10-15 12:00:00 4.5 18 Oeste 28 Oeste 0 -- -- 92
2019-10-15 11:00:00 3.6 12 Oeste 31 Oeste 0 -- -- 97
2019-10-15 10:00:00 3.3 22 Oeste 35 Oeste 0 -- -- 98
2019-10-15 09:00:00 3.1 22 Oeste 32 Noroeste 0 -- -- 97
2019-10-15 08:00:00 3.1 17 Oeste 36 Oeste 0 -- -- 96
2019-10-15 07:00:00 3.2 24 Oeste 38 Oeste 0 -- -- 95
2019-10-15 06:00:00 3.3 21 Oeste 32 Oeste 0 -- -- 94
2019-10-15 05:00:00 3.5 23 Oeste 33 Oeste 0 -- -- 95
2019-10-15 04:00:00 3.8 16 Oeste 32 Oeste 0 -- -- 96
2019-10-15 03:00:00 3.9 23 Oeste 41 Oeste 0 -- -- 96
2019-10-15 02:00:00 4.3 25 Oeste 50 Noroeste 0 -- -- 95
2019-10-15 01:00:00 4.6 32 Oeste 46 Oeste 0.2 -- -- 92
2019-10-15 00:00:00 5.3 25 Oeste 44 Oeste 1.6 -- -- 97
2019-10-14 23:00:00 5.7 26 Oeste 45 Noroeste 0.2 -- -- 93
2019-10-14 22:00:00 6.3 24 Oeste 40 Oeste 0 -- -- 93
2019-10-14 21:00:00 6.2 18 Noroeste 30 Oeste 0.4 -- -- 94
2019-10-14 20:00:00 6 12 Oeste 46 Oeste 4.2 -- -- 92
2019-10-14 19:00:00 6.6 19 Oeste 50 Oeste 2.6 -- -- 92
2019-10-14 18:00:00 9.3 30 Noroeste 57 Noroeste 0 -- -- 78
2019-10-14 17:00:00 13.6 34 Oeste 54 Oeste 0 -- -- 55
2019-10-14 16:00:00 15.2 36 Oeste 61 Oeste 0 -- -- 50
2019-10-14 15:00:00 12.9 26 Oeste 46 Oeste 0 -- -- 70
2019-10-14 14:00:00 11.4 26 Oeste 52 Oeste 0 -- -- 77
2019-10-14 13:00:00 11.1 36 Oeste 59 Oeste 0 -- -- 85
2019-10-14 12:00:00 15.7 27 Sudoeste 46 Oeste 0 -- -- 56
2019-10-14 11:00:00 15.9 29 Sudoeste 47 Oeste 0 -- -- 63
2019-10-14 10:00:00 15.7 22 Sudoeste 45 Sudoeste 0 -- -- 62
2019-10-14 09:00:00 16.1 19 Sudoeste 36 Sur 0 -- -- 60
2019-10-14 08:00:00 16.4 19 Sur 42 Sudoeste 0 -- -- 57
2019-10-14 07:00:00 16.9 13 Sudoeste 39 Sudoeste 0 -- -- 53
2019-10-14 06:00:00 17.9 22 Sudoeste 45 Sur 0 -- -- 46
2019-10-14 05:00:00 18.1 20 Sudoeste 45 Sudoeste 0 -- -- 47
2019-10-14 04:00:00 17.9 19 Sudoeste 44 Sur 0 -- -- 49
2019-10-14 03:00:00 17.9 19 Sudoeste 42 Sudoeste 0 -- -- 47
2019-10-14 02:00:00 17.2 14 Oeste 37 Oeste 0 -- -- 49
2019-10-14 01:00:00 16.2 13 Oeste 30 Oeste 0 -- -- 51
2019-10-14 00:00:00 16.1 18 Oeste 34 Oeste 0 -- -- 49
2019-10-13 23:00:00 16 14 Oeste 29 Oeste 0 -- -- 50
2019-10-13 22:00:00 16.2 9 Sudoeste 25 Sudoeste 0 -- -- 52
2019-10-13 21:00:00 16.7 9 Sur 36 Sur 0 -- -- 47
2019-10-13 20:00:00 18.3 17 Sur 32 Sur 0 -- -- 40
2019-10-13 19:00:00 20.4 22 Sudoeste 44 Oeste 0 -- -- 35
2019-10-13 18:00:00 21.6 22 Oeste 43 Oeste 0 -- -- 31
2019-10-13 17:00:00 21.7 22 Oeste 39 Oeste 0 -- -- 31
2019-10-13 16:00:00 21.2 25 Sudoeste 49 Sudoeste 0 -- -- 36
2019-10-13 15:00:00 21.9 24 Oeste 51 Oeste 0 -- -- 33
2019-10-13 14:00:00 21.4 26 Sudoeste 49 Oeste 0 -- -- 34
2019-10-13 13:00:00 19.3 27 Oeste 46 Oeste 0 -- -- 47
2019-10-13 12:00:00 16.9 17 Sudoeste 36 Oeste 0 -- -- 60
2019-10-13 11:00:00 16.9 13 Oeste 34 Oeste 0 -- -- 66
2019-10-13 10:00:00 15.3 13 Sudoeste 37 Sudoeste 0 -- -- 70
2019-10-13 09:00:00 16 13 Oeste 29 Sudoeste 0 -- -- 65
2019-10-13 08:00:00 15.6 10 Oeste 35 Oeste 0 -- -- 67
2019-10-13 07:00:00 14.9 14 Oeste 31 Oeste 0 -- -- 65
2019-10-13 06:00:00 16.2 13 Oeste 36 Oeste 0 -- -- 52
2019-10-13 05:00:00 16.9 20 Oeste 36 Oeste 0 -- -- 51
2019-10-13 04:00:00 17.1 20 Oeste 36 Oeste 0 -- -- 50
2019-10-13 03:00:00 17.3 15 Sudoeste 40 Sudoeste 0 -- -- 49
2019-10-13 02:00:00 17.5 21 Sudoeste 41 Sudoeste 0 -- -- 48
2019-10-13 01:00:00 17.2 23 Sur 47 Sudoeste 0 -- -- 50
2019-10-13 00:00:00 18.3 10 Sudoeste 28 Sur 0 -- -- 45
2019-10-12 23:00:00 17.8 7 Oeste 26 Sudoeste 0 -- -- 50
2019-10-12 22:00:00 16.2 5 Sudoeste 15 Sudeste 0 -- -- 62
2019-10-12 21:00:00 15.4 5 Este 42 Noroeste 0.2 -- -- 66
2019-10-12 20:00:00 19.5 7 Sudoeste 27 Sudoeste 0 -- -- 47
2019-10-12 19:00:00 21 12 Sudoeste 29 Sudoeste 0 -- -- 42
2019-10-12 18:00:00 21 9 Oeste 26 Oeste 0 -- -- 41
2019-10-12 17:00:00 20.3 4 Nordeste 59 Oeste 0 -- -- 51
2019-10-12 16:00:00 21.2 19 Sudoeste 38 Sudoeste 0 -- -- 46
2019-10-12 15:00:00 22.2 20 Sudoeste 49 Sudoeste 0 -- -- 45
2019-10-12 14:00:00 21.6 18 Sudoeste 39 Sudoeste 0 -- -- 46
2019-10-12 13:00:00 21.2 19 Sudoeste 40 Sudoeste 0 -- -- 43
2019-10-12 12:00:00 19.3 10 Sudoeste 31 Oeste 0 -- -- 52
2019-10-12 11:00:00 15.5 7 Norte 12 Noroeste 0 -- -- 68
2019-10-12 10:00:00 12.6 2 Este 10 Noroeste 0 -- -- 91
2019-10-12 09:00:00 11.1 2 Norte 17 Sudoeste 0 -- -- 94
2019-10-12 08:00:00 10.6 0 Calma 10 Oeste 0 -- -- 95
2019-10-12 07:00:00 11.2 3 Sudeste 16 Sudoeste 0 -- -- 93
2019-10-12 06:00:00 11.3 2 Este 8 Noroeste 0 -- -- 93
2019-10-12 05:00:00 11.9 3 Sur 12 Norte 0 -- -- 91
2019-10-12 04:00:00 12.5 4 Norte 10 Sudoeste 0 -- -- 91
2019-10-12 03:00:00 12.8 4 Noroeste 10 Oeste 0 -- -- 93
2019-10-12 02:00:00 14.3 3 Sudeste 12 Sur 0 -- -- 86
2019-10-12 01:00:00 15.2 4 Norte 13 Noroeste 0 -- -- 82
2019-10-12 00:00:00 17 8 Norte 13 Norte 0 -- -- 72
2019-10-11 23:00:00 16.7 3 Este 11 Este 0 -- -- 74
2019-10-11 22:00:00 15.6 5 Norte 8 Noroeste 0 -- -- 82
2019-10-11 21:00:00 16.1 4 Este 31 Sudoeste 0.4 -- -- 82
2019-10-11 20:00:00 19.8 2 Sudeste 9 Oeste 0 -- -- 59
2019-10-11 19:00:00 22.1 5 Noroeste 19 Noroeste 0 -- -- 50
2019-10-11 18:00:00 22.8 15 Oeste 32 Oeste 0 -- -- 46
2019-10-11 17:00:00 23.8 21 Oeste 37 Oeste 0 -- -- 41
2019-10-11 16:00:00 24.1 20 Oeste 40 Noroeste 0 -- -- 40
2019-10-11 15:00:00 23.6 23 Oeste 36 Oeste 0 -- -- 41
2019-10-11 14:00:00 22.8 21 Sudoeste 34 Oeste 0 -- -- 42
2019-10-11 13:00:00 21.8 20 Oeste 32 Oeste 0 -- -- 44
2019-10-11 12:00:00 20.1 17 Noroeste 27 Noroeste 0 -- -- 47
2019-10-11 11:00:00 13.8 2 Oeste 5 Oeste 0 -- -- 81
2019-10-11 10:00:00 9.5 2 Oeste 5 Oeste 0 -- -- 91
2019-10-11 09:00:00 7.9 0 Calma 3 Nordeste 0 -- -- 97
2019-10-11 08:00:00 7.4 0 Calma 4 Norte 0 -- -- 96
2019-10-11 07:00:00 7.5 0 Calma 2 Oeste 0 -- -- 96
2019-10-11 06:00:00 7.5 0 Calma 4 Este 0 -- -- 95
2019-10-11 05:00:00 7.4 0 Calma 2 Nordeste 0 -- -- 93
2019-10-11 04:00:00 8 0 Calma 3 Oeste 0 -- -- 92
2019-10-11 03:00:00 8.1 0 Calma 2 Noroeste 0 -- -- 90
2019-10-11 02:00:00 8.2 0 Calma 3 Oeste 0 -- -- 87
2019-10-11 01:00:00 8.2 0 Calma 4 Oeste 0 -- -- 85
2019-10-11 00:00:00 8.3 0 Calma 6 Oeste 0 -- -- 83
2019-10-10 23:00:00 9.5 0 Calma 3 Este 0 -- -- 79
2019-10-10 22:00:00 11.6 4 Sudeste 12 Sudeste 0 -- -- 70
2019-10-10 21:00:00 12.9 8 Sudeste 23 Este 0 -- -- 67
2019-10-10 20:00:00 15.2 17 Este 23 Este 0 -- -- 60
2019-10-10 19:00:00 19 14 Sudeste 21 Sudeste 0 -- -- 49
2019-10-10 18:00:00 21.8 11 Noroeste 23 Oeste 0 -- -- 38
2019-10-10 17:00:00 21.8 13 Oeste 25 Noroeste 0 -- -- 39
2019-10-10 16:00:00 21.4 12 Noroeste 19 Noroeste 0 -- -- 36
2019-10-10 15:00:00 20.1 4 Norte 13 Sudoeste 0 -- -- 42
2019-10-10 14:00:00 17.8 9 Sudeste 21 Sudeste 0 -- -- 46
2019-10-10 13:00:00 15.1 19 Sudeste 26 Sudeste 0 -- -- 57
2019-10-10 12:00:00 12.2 20 Sudeste 28 Sudeste 0 -- -- 70
2019-10-10 11:00:00 9.7 23 Sudeste 30 Sudeste 0 -- -- 79
2019-10-10 10:00:00 7.5 17 Sudeste 24 Sudeste 0 -- -- 93
2019-10-10 09:00:00 5 3 Oeste 23 Este 0 -- -- 96
2019-10-10 08:00:00 4.3 14 Sudeste 22 Sudeste 0 -- -- 98
2019-10-10 07:00:00 4.5 13 Sudeste 21 Sudeste 0 -- -- 96
2019-10-10 06:00:00 5.1 12 Sudeste 26 Sudeste 0 -- -- 95
2019-10-10 05:00:00 5.6 13 Sudeste 28 Sudeste 0 -- -- 93
2019-10-10 04:00:00 6.4 23 Sudeste 30 Sudeste 0 -- -- 93
2019-10-10 03:00:00 6.8 15 Sudeste 24 Sudeste 0 -- -- 91
2019-10-10 02:00:00 6.9 15 Sudeste 22 Este 0 -- -- 93
2019-10-10 01:00:00 8 14 Este 20 Este 0 -- -- 87
2019-10-10 00:00:00 8.3 12 Este 21 Este 0 -- -- 88
2019-10-09 23:00:00 9 11 Este 19 Este 0 -- -- 84
2019-10-09 22:00:00 9.6 11 Este 19 Este 0 -- -- 85
2019-10-09 21:00:00 10.2 12 Este 21 Este 0 -- -- 81
2019-10-09 20:00:00 11.2 17 Este 31 Este 0 -- -- 81
2019-10-09 19:00:00 12.2 25 Sudeste 42 Sudeste 0 -- -- 80
2019-10-09 18:00:00 13.7 31 Sudeste 40 Sudeste 0 -- -- 74
2019-10-09 17:00:00 15.4 28 Sudeste 36 Sudeste 0 -- -- 68
2019-10-09 16:00:00 16.1 23 Sudeste 31 Sudeste 0 -- -- 66
2019-10-09 15:00:00 15.3 27 Sudeste 37 Este 0 -- -- 70
2019-10-09 14:00:00 15.4 23 Sudeste 33 Este 0 -- -- 73
2019-10-09 13:00:00 15.3 22 Sudeste 30 Sudeste 0 -- -- 74
2019-10-09 12:00:00 13.4 22 Sudeste 32 Sudeste 0 -- -- 81
2019-10-09 11:00:00 11.5 23 Sudeste 30 Sudeste 0 -- -- 94
2019-10-09 10:00:00 10.6 18 Sudeste 24 Sudeste 0 -- -- 99
2019-10-09 09:00:00 10.7 14 Sudeste 21 Sudeste 0 -- -- 99
2019-10-09 08:00:00 10.3 13 Sudeste 18 Sudeste 0 -- -- 98
2019-10-09 07:00:00 9.6 2 Este 8 Sudeste 0 -- -- 96
2019-10-09 06:00:00 9.4 0 Calma 6 Noroeste 0 -- -- 98
2019-10-09 05:00:00 8.3 0 Calma 3 Sudeste 0 -- -- 94
2019-10-09 04:00:00 9.5 2 Sudeste 11 Este 0 -- -- 92
2019-10-09 03:00:00 10.4 7 Este 11 Este 0 -- -- 93
2019-10-09 02:00:00 11.4 3 Sudeste 17 Sudeste 0 -- -- 83
2019-10-09 01:00:00 12.6 13 Sudeste 22 Sudeste 0 -- -- 85
2019-10-09 00:00:00 13.7 6 Sudeste 15 Este 0 -- -- 77
2019-10-08 23:00:00 14.9 4 Sudeste 28 Este 0 -- -- 65
2019-10-08 22:00:00 16 17 Sudeste 27 Sudeste 0 -- -- 59
2019-10-08 21:00:00 17.1 12 Este 19 Sudeste 0 -- -- 54
2019-10-08 20:00:00 20.2 2 Sur 12 Noroeste 0 -- -- 47
2019-10-08 19:00:00 23.7 12 Noroeste 28 Noroeste 0 -- -- 39
2019-10-08 18:00:00 24.7 14 Noroeste 32 Oeste 0 -- -- 35
2019-10-08 17:00:00 24.8 19 Oeste 32 Oeste 0 -- -- 36
2019-10-08 16:00:00 24.6 20 Noroeste 34 Oeste 0 -- -- 37
2019-10-08 15:00:00 24.6 16 Noroeste 31 Noroeste 0 -- -- 40
2019-10-08 14:00:00 23.6 15 Noroeste 27 Oeste 0 -- -- 41
2019-10-08 13:00:00 22.6 17 Oeste 25 Oeste 0 -- -- 41
2019-10-08 12:00:00 20.7 10 Noroeste 17 Noroeste 0 -- -- 45
2019-10-08 11:00:00 14.8 0 Calma 6 Sudoeste 0 -- -- 69
2019-10-08 10:00:00 10.8 2 Sudoeste 3 Sur 0 -- -- 80
2019-10-08 09:00:00 7.1 0 Calma 4 Sudeste 0 -- -- 91
2019-10-08 08:00:00 6.6 0 Calma 2 Noroeste 0 -- -- 89
2019-10-08 07:00:00 6.9 2 Noroeste 3 Oeste 0 -- -- 87
2019-10-08 06:00:00 6.7 0 Calma 5 Noroeste 0 -- -- 87
2019-10-08 05:00:00 7.1 0 Calma 4 Noroeste 0 -- -- 84
2019-10-08 04:00:00 7 2 Sudeste 5 Este 0 -- -- 86
2019-10-08 03:00:00 7.4 2 Sudeste 4 Sudeste 0 -- -- 81
2019-10-08 02:00:00 7.9 3 Norte 8 Oeste 0 -- -- 78
2019-10-08 01:00:00 8 3 Sudeste 6 Norte 0 -- -- 77
2019-10-08 00:00:00 9.1 2 Sudoeste 6 Oeste 0 -- -- 70
2019-10-07 23:00:00 10.5 4 Norte 9 Este 0 -- -- 65
2019-10-07 22:00:00 13.2 3 Este 20 Este 0 -- -- 50
2019-10-07 21:00:00 15.5 13 Este 18 Este 0 -- -- 42
2019-10-07 20:00:00 16.7 7 Este 18 Nordeste 0 -- -- 44
2019-10-07 19:00:00 19.6 13 Nordeste 20 Nordeste 0 -- -- 38
2019-10-07 18:00:00 20.8 11 Nordeste 26 Este 0 -- -- 36
2019-10-07 17:00:00 21.5 10 Este 24 Este 0 -- -- 36
2019-10-07 16:00:00 21.1 11 Este 21 Este 0 -- -- 33
2019-10-07 15:00:00 20.7 12 Este 23 Este 0 -- -- 34
2019-10-07 14:00:00 20.6 18 Este 28 Este 0 -- -- 38
2019-10-07 13:00:00 18.7 6 Oeste 10 Sudoeste 0 -- -- 39
2019-10-07 12:00:00 15.9 7 Sudeste 11 Sur 0 -- -- 48
2019-10-07 11:00:00 12.4 3 Sudoeste 8 Sudeste 0 -- -- 66
2019-10-07 10:00:00 9.1 3 Sudeste 7 Sudeste 0 -- -- 83
2019-10-07 09:00:00 5.5 3 Noroeste 12 Sudeste 0 -- -- 97
2019-10-07 08:00:00 5.2 4 Sudeste 10 Sudeste 0 -- -- 98
2019-10-07 07:00:00 6.3 6 Este 13 Sudeste 0 -- -- 98
2019-10-07 06:00:00 7.3 8 Sudeste 23 Este 0 -- -- 96
2019-10-07 05:00:00 7.6 17 Sudeste 26 Sudeste 0 -- -- 97
2019-10-07 04:00:00 8.3 10 Este 22 Sudeste 0 -- -- 96
2019-10-07 03:00:00 8.8 15 Este 26 Este 0 -- -- 98
2019-10-07 02:00:00 9.3 16 Este 26 Sudeste 0 -- -- 98
2019-10-07 01:00:00 9.8 17 Este 23 Este 0 -- -- 97
2019-10-07 00:00:00 9.9 14 Este 19 Sudeste 0 -- -- 96
2019-10-06 23:00:00 10.3 12 Sudeste 18 Este 0 -- -- 94
2019-10-06 22:00:00 11.1 12 Este 19 Sudeste 0 -- -- 92
2019-10-06 21:00:00 11.9 12 Este 22 Este 0 -- -- 88
2019-10-06 20:00:00 13.5 13 Este 26 Nordeste 0 -- -- 80
2019-10-06 19:00:00 15.8 19 Nordeste 32 Nordeste 0 -- -- 66
2019-10-06 18:00:00 17.7 21 Nordeste 40 Nordeste 0 -- -- 63
2019-10-06 17:00:00 20.2 15 Oeste 27 Oeste 0 -- -- 53
2019-10-06 16:00:00 20 17 Oeste 28 Oeste 0 -- -- 54
2019-10-06 15:00:00 19.7 8 Oeste 22 Oeste 0 -- -- 52
2019-10-06 14:00:00 17.7 5 Oeste 21 Sudeste 0 -- -- 57
2019-10-06 13:00:00 14.8 17 Sudeste 25 Sudeste 0 -- -- 72
2019-10-06 12:00:00 12.8 15 Sudeste 24 Sudeste 0 -- -- 80
2019-10-06 11:00:00 11.3 20 Sudeste 28 Este 0 -- -- 86
2019-10-06 10:00:00 9.6 24 Sudeste 30 Sudeste 0 -- -- 97
2019-10-06 09:00:00 8.8 18 Sudeste 26 Este 0 -- -- 100
2019-10-06 08:00:00 8.9 16 Sudeste 25 Este 0 -- -- 100
2019-10-06 07:00:00 9.1 13 Sudeste 25 Sudeste 0 -- -- 100
2019-10-06 06:00:00 8.6 18 Este 27 Este 0 -- -- 99
2019-10-06 05:00:00 7.5 12 Sudeste 15 Sudeste 0 -- -- 98
2019-10-06 04:00:00 6.9 0 Calma 8 Sudeste 0 -- -- 97
2019-10-06 03:00:00 7.4 0 Calma 10 Este 0 -- -- 95
2019-10-06 02:00:00 8.6 8 Este 14 Este 0 -- -- 94
2019-10-06 01:00:00 8.4 0 Calma 5 Oeste 0 -- -- 89
2019-10-06 00:00:00 10 0 Calma 4 Sudeste 0 -- -- 86
2019-10-05 23:00:00 10.8 0 Calma 5 Sudeste 0 -- -- 78
2019-10-05 22:00:00 11.9 4 Sudeste 6 Norte 0 -- -- 74
2019-10-05 21:00:00 14.6 3 Noroeste 6 Oeste 0 -- -- 66
2019-10-05 20:00:00 17.9 5 Noroeste 15 Oeste 0 -- -- 53
2019-10-05 19:00:00 20.8 13 Noroeste 24 Noroeste 0 -- -- 44
2019-10-05 18:00:00 21.8 17 Oeste 25 Oeste 0 -- -- 40
2019-10-05 17:00:00 22.2 15 Noroeste 27 Oeste 0 -- -- 45
2019-10-05 16:00:00 22.2 15 Oeste 27 Oeste 0 -- -- 47
2019-10-05 15:00:00 21.9 15 Oeste 29 Oeste 0 -- -- 50
2019-10-05 14:00:00 20.6 18 Oeste 27 Oeste 0 -- -- 58
2019-10-05 13:00:00 19.4 13 Oeste 18 Oeste 0 -- -- 62
2019-10-05 12:00:00 17.3 4 Oeste 9 Noroeste 0 -- -- 73
2019-10-05 11:00:00 12.9 6 Sudeste 9 Sudeste 0 -- -- 97
2019-10-05 10:00:00 9.4 4 Sudeste 8 Este 0 -- -- 100
2019-10-05 09:00:00 8.8 5 Este 11 Este 0 -- -- 100
2019-10-05 08:00:00 9.2 3 Este 8 Este 0 -- -- 99
2019-10-05 07:00:00 9.4 4 Sudeste 7 Este 0 -- -- 97
2019-10-05 06:00:00 9.3 0 Calma 9 Este 0 -- -- 96
2019-10-05 05:00:00 10.1 7 Este 14 Sudeste 0 -- -- 97
2019-10-05 04:00:00 10.3 10 Este 22 Sudeste 0 -- -- 97
2019-10-05 03:00:00 11.2 16 Sudeste 25 Sudeste 0 -- -- 98
2019-10-05 02:00:00 11.2 15 Este 25 Sudeste 0 -- -- 98
2019-10-05 01:00:00 11 6 Este 14 Este 0 -- -- 97
2019-10-05 00:00:00 11 10 Este 22 Sudeste 0 -- -- 96
2019-10-04 23:00:00 11.9 16 Sudeste 25 Sudeste 0 -- -- 94
2019-10-04 22:00:00 13 17 Este 24 Este 0 -- -- 88
2019-10-04 21:00:00 14.4 0 Calma 9 Noroeste 0 -- -- 71
2019-10-04 20:00:00 17.3 5 Norte 21 Noroeste 0 -- -- 60
2019-10-04 19:00:00 19.8 17 Noroeste 27 Noroeste 0 -- -- 52
2019-10-04 18:00:00 20.8 21 Noroeste 30 Noroeste 0 -- -- 51
2019-10-04 17:00:00 21.2 17 Oeste 31 Oeste 0 -- -- 50
2019-10-04 16:00:00 21.4 15 Oeste 35 Oeste 0 -- -- 52
2019-10-04 15:00:00 20.3 22 Oeste 32 Oeste 0 -- -- 55
2019-10-04 14:00:00 19.5 15 Oeste 27 Oeste 0 -- -- 59
2019-10-04 13:00:00 18.3 16 Oeste 27 Oeste 0 -- -- 66
2019-10-04 12:00:00 16.9 18 Oeste 27 Oeste 0 -- -- 70
2019-10-04 11:00:00 13.3 2 Oeste 5 Oeste 0 -- -- 76
2019-10-04 10:00:00 9 0 Calma 3 Sudoeste 0 -- -- 87
2019-10-04 09:00:00 5.5 0 Calma 5 Norte 0 -- -- 96
2019-10-04 08:00:00 3.8 0 Calma 2 Noroeste 0 -- -- 94
2019-10-04 07:00:00 5 0 Calma 2 Norte 0 -- -- 95
2019-10-04 06:00:00 4.9 0 Calma 3 Noroeste 0 -- -- 91
2019-10-04 05:00:00 5.1 0 Calma 4 Noroeste 0 -- -- 93
2019-10-04 04:00:00 5.4 0 Calma 6 Este 0 -- -- 91
2019-10-04 03:00:00 5.8 0 Calma 7 Oeste 0 -- -- 87
2019-10-04 02:00:00 7.8 5 Este 9 Este 0 -- -- 84
2019-10-04 01:00:00 8 4 Sudeste 6 Sudeste 0 -- -- 83
2019-10-04 00:00:00 8.3 0 Calma 4 Oeste 0 -- -- 78
2019-10-03 23:00:00 9.3 0 Calma 6 Este 0 -- -- 73
2019-10-03 22:00:00 10.9 3 Noroeste 8 Oeste 0 -- -- 66
2019-10-03 21:00:00 12.5 0 Calma 6 Noroeste 0 -- -- 59
2019-10-03 20:00:00 16.3 2 Sudoeste 20 Noroeste 0 -- -- 49
2019-10-03 19:00:00 19 17 Oeste 30 Oeste 0 -- -- 43
2019-10-03 18:00:00 20.1 18 Oeste 26 Oeste 0 -- -- 40
2019-10-03 17:00:00 20.1 19 Oeste 33 Oeste 0 -- -- 43
2019-10-03 16:00:00 20.1 22 Oeste 33 Oeste 0 -- -- 46
2019-10-03 15:00:00 19.4 21 Oeste 32 Oeste 0 -- -- 48
2019-10-03 14:00:00 17.9 21 Oeste 31 Oeste 0 -- -- 54
2019-10-03 13:00:00 16.5 10 Oeste 21 Oeste 0 -- -- 61
2019-10-03 12:00:00 14.3 10 Oeste 19 Oeste 0 -- -- 71
2019-10-03 11:00:00 11.8 13 Oeste 18 Oeste 0 -- -- 79
2019-10-03 10:00:00 6.1 2 Oeste 6 Noroeste 0 -- -- 96
2019-10-03 09:00:00 3.5 0 Calma 4 Noroeste 0 -- -- 100
2019-10-03 08:00:00 2.3 0 Calma 3 Oeste 0 -- -- 96
2019-10-03 07:00:00 2.8 0 Calma 4 Oeste 0 -- -- 96
2019-10-03 06:00:00 4.5 0 Calma 5 Este 0 -- -- 95
2019-10-03 05:00:00 5.6 2 Sudeste 13 Sudeste 0 -- -- 94
2019-10-03 04:00:00 6.8 11 Este 14 Este 0 -- -- 95
2019-10-03 03:00:00 7.5 13 Este 22 Sudeste 0 -- -- 93
2019-10-03 02:00:00 8.4 18 Este 26 Este 0 -- -- 90
2019-10-03 01:00:00 7 13 Sudeste 17 Sudeste 0 -- -- 94
2019-10-03 00:00:00 8.1 11 Este 16 Este 0 -- -- 90
2019-10-02 23:00:00 8.9 7 Sudeste 28 Sudeste 0 -- -- 79
2019-10-02 22:00:00 11 15 Este 26 Sudeste 0 -- -- 73
2019-10-02 21:00:00 11.4 15 Nordeste 26 Este 0 -- -- 76
2019-10-02 20:00:00 12.1 12 Nordeste 28 Nordeste 0 -- -- 69
2019-10-02 19:00:00 13.6 11 Este 26 Sudeste 0 -- -- 61
2019-10-02 18:00:00 13.8 11 Este 30 Este 0 -- -- 60
2019-10-02 17:00:00 14.8 15 Nordeste 28 Nordeste 0 -- -- 59
2019-10-02 16:00:00 15.2 11 Nordeste 27 Norte 0 -- -- 56
2019-10-02 15:00:00 14.2 9 Norte 32 Nordeste 0 -- -- 61
2019-10-02 14:00:00 14.4 7 Noroeste 23 Norte 0 -- -- 61
2019-10-02 13:00:00 13.6 10 Este 37 Norte 0 -- -- 61
2019-10-02 12:00:00 13.3 21 Norte 32 Nordeste 0 -- -- 63
2019-10-02 11:00:00 12.7 13 Norte 31 Noroeste 0 -- -- 65
2019-10-02 10:00:00 11.2 12 Noroeste 19 Oeste 0 -- -- 72
2019-10-02 09:00:00 6.8 3 Sudeste 15 Norte 0 -- -- 89
2019-10-02 08:00:00 6.4 4 Sudeste 9 Sudeste 0 -- -- 84
2019-10-02 07:00:00 7.2 4 Nordeste 18 Nordeste 0 -- -- 84
2019-10-02 06:00:00 9 11 Nordeste 22 Nordeste 0 -- -- 82
2019-10-02 05:00:00 6.1 4 Sudeste 9 Norte 0 -- -- 94
2019-10-02 04:00:00 6.4 3 Sudoeste 8 Noroeste 0 -- -- 92
2019-10-02 03:00:00 7.1 3 Noroeste 6 Oeste 0 -- -- 92
2019-10-02 02:00:00 7.7 0 Calma 7 Este 0 -- -- 90
2019-10-02 01:00:00 7.2 5 Noroeste 13 Noroeste 0 -- -- 87
2019-10-02 00:00:00 11.4 8 Norte 11 Norte 0 -- -- 68
2019-10-01 23:00:00 11.6 4 Noroeste 11 Norte 0 -- -- 67
2019-10-01 22:00:00 12.2 0 Calma 6 Norte 0 -- -- 65
2019-10-01 21:00:00 14.6 4 Norte 10 Noroeste 0 -- -- 60
2019-10-01 20:00:00 16.3 8 Noroeste 22 Noroeste 0 -- -- 56
2019-10-01 19:00:00 18.6 20 Noroeste 36 Noroeste 0 -- -- 51
2019-10-01 18:00:00 18.3 18 Noroeste 38 Noroeste 0 -- -- 51
2019-10-01 17:00:00 18.3 24 Noroeste 45 Oeste 0 -- -- 55
2019-10-01 16:00:00 19.4 19 Noroeste 39 Oeste 0 -- -- 54
2019-10-01 15:00:00 18.4 23 Noroeste 38 Oeste 0 -- -- 56
2019-10-01 14:00:00 17.1 20 Noroeste 32 Noroeste 0 -- -- 65
2019-10-01 13:00:00 17.9 14 Oeste 28 Oeste 0 -- -- 62
2019-10-01 12:00:00 17.1 19 Oeste 25 Oeste 0 -- -- 66
2019-10-01 11:00:00 16 9 Noroeste 13 Oeste 0 -- -- 67
2019-10-01 10:00:00 11.3 3 Noroeste 5 Noroeste 0 -- -- 93
2019-10-01 09:00:00 7.8 0 Calma 5 Noroeste 0 -- -- 92
2019-10-01 08:00:00 8.2 0 Calma 4 Noroeste 0 -- -- 96
2019-10-01 07:00:00 7.7 0 Calma 5 Oeste 0 -- -- 93
2019-10-01 06:00:00 8.1 0 Calma 3 Noroeste 0 -- -- 95
2019-10-01 05:00:00 8.3 0 Calma 3 Oeste 0 -- -- 93
2019-10-01 04:00:00 9 2 Noroeste 4 Oeste 0 -- -- 93
2019-10-01 03:00:00 9.5 0 Calma 0 Calma 0 -- -- 91
2019-10-01 02:00:00 9.9 0 Calma 2 Sudeste 0 -- -- 89
2019-10-01 01:00:00 10 2 Este 3 Noroeste 0 -- -- 89
2019-10-01 00:00:00 11.3 0 Calma 4 Este 0 -- -- 83
2019-09-30 23:00:00 11.9 2 Sur 5 Noroeste 0 -- -- 78
2019-09-30 22:00:00 14.3 2 Noroeste 5 Oeste 0 -- -- 73
2019-09-30 21:00:00 16.5 3 Oeste 8 Norte 0 -- -- 63
2019-09-30 20:00:00 19.9 6 Norte 19 Oeste 0 -- -- 52
2019-09-30 19:00:00 22.3 15 Oeste 24 Noroeste 0 -- -- 45
2019-09-30 18:00:00 23.1 14 Oeste 26 Oeste 0 -- -- 44
2019-09-30 17:00:00 22.8 14 Oeste 30 Noroeste 0 -- -- 52
2019-09-30 16:00:00 22.9 15 Oeste 28 Noroeste 0 -- -- 51
2019-09-30 15:00:00 21.6 12 Noroeste 29 Noroeste 0 -- -- 60
2019-09-30 14:00:00 21.4 17 Noroeste 27 Oeste 0 -- -- 59
2019-09-30 13:00:00 20.1 16 Noroeste 25 Noroeste 0 -- -- 60
2019-09-30 12:00:00 18.7 8 Noroeste 16 Oeste 0 -- -- 67
2019-09-30 11:00:00 16.1 7 Oeste 11 Noroeste 0 -- -- 73
2019-09-30 10:00:00 11.6 0 Calma 3 Sur 0 -- -- 86
2019-09-30 09:00:00 8.3 0 Calma 9 Noroeste 0 -- -- 92
2019-09-30 08:00:00 7.5 0 Calma 3 Oeste 0 -- -- 94
2019-09-30 07:00:00 7.5 0 Calma 4 Noroeste 0 -- -- 92
2019-09-30 06:00:00 7.8 2 Noroeste 5 Oeste 0 -- -- 90
2019-09-30 05:00:00 6.9 3 Sudeste 5 Noroeste 0 -- -- 89
2019-09-30 04:00:00 8 0 Calma 4 Oeste 0 -- -- 83
2019-09-30 03:00:00 8 0 Calma 4 Noroeste 0 -- -- 83
2019-09-30 02:00:00 8.8 0 Calma 4 Oeste 0 -- -- 79
2019-09-30 01:00:00 9.3 0 Calma 5 Oeste 0 -- -- 76
2019-09-30 00:00:00 10.7 0 Calma 4 Este 0 -- -- 69
2019-09-29 23:00:00 12.1 0 Calma 4 Oeste 0 -- -- 65
2019-09-29 22:00:00 13.9 0 Calma 4 Nordeste 0 -- -- 56
2019-09-29 21:00:00 16.4 0 Calma 10 Noroeste 0 -- -- 48
2019-09-29 20:00:00 19.7 9 Norte 27 Oeste 0 -- -- 39
2019-09-29 19:00:00 22.3 18 Oeste 31 Oeste 0 -- -- 33
2019-09-29 18:00:00 22.9 20 Oeste 36 Oeste 0 -- -- 32
2019-09-29 17:00:00 22.9 25 Oeste 43 Oeste 0 -- -- 32
2019-09-29 16:00:00 22.8 22 Oeste 40 Oeste 0 -- -- 32
2019-09-29 15:00:00 22.2 23 Noroeste 39 Noroeste 0 -- -- 32
2019-09-29 14:00:00 21.2 22 Noroeste 42 Oeste 0 -- -- 38
2019-09-29 13:00:00 20 26 Oeste 36 Oeste 0 -- -- 42
2019-09-29 12:00:00 19.2 17 Noroeste 24 Noroeste 0 -- -- 44
2019-09-29 11:00:00 14.4 4 Oeste 8 Oeste 0 -- -- 71
2019-09-29 10:00:00 9.5 0 Calma 3 Oeste 0 -- -- 81
2019-09-29 09:00:00 6.3 0 Calma 4 Oeste 0 -- -- 86
2019-09-29 08:00:00 5.2 0 Calma 3 Oeste 0 -- -- 87
2019-09-29 07:00:00 5.6 0 Calma 4 Norte 0 -- -- 87
2019-09-29 06:00:00 5.2 0 Calma 4 Noroeste 0 -- -- 88
2019-09-29 05:00:00 6 3 Noroeste 4 Noroeste 0 -- -- 86
2019-09-29 04:00:00 6.1 0 Calma 4 Nordeste 0 -- -- 84
2019-09-29 03:00:00 6.7 3 Noroeste 4 Noroeste 0 -- -- 87
2019-09-29 02:00:00 6.7 0 Calma 3 Noroeste 0 -- -- 82
2019-09-29 01:00:00 7.7 0 Calma 4 Oeste 0 -- -- 80
2019-09-29 00:00:00 9.2 0 Calma 3 Oeste 0 -- -- 75
2019-09-28 23:00:00 10.2 0 Calma 3 Oeste 0 -- -- 71
2019-09-28 22:00:00 12.2 0 Calma 5 Noroeste 0 -- -- 64
2019-09-28 21:00:00 14.6 4 Noroeste 9 Norte 0 -- -- 55
2019-09-28 20:00:00 19.1 8 Norte 16 Oeste 0 -- -- 38
2019-09-28 19:00:00 21.9 10 Oeste 22 Noroeste 0 -- -- 35
2019-09-28 18:00:00 22.5 16 Noroeste 27 Oeste 0 -- -- 33
2019-09-28 17:00:00 22.5 14 Oeste 25 Oeste 0 -- -- 32
2019-09-28 16:00:00 22.2 15 Oeste 27 Oeste 0 -- -- 34
2019-09-28 15:00:00 21.4 13 Oeste 28 Oeste 0 -- -- 37
2019-09-28 14:00:00 20.2 13 Noroeste 28 Oeste 0 -- -- 48
2019-09-28 13:00:00 18.7 13 Noroeste 23 Noroeste 0 -- -- 52
2019-09-28 12:00:00 17 10 Noroeste 17 Noroeste 0 -- -- 61
2019-09-28 11:00:00 13.3 3 Oeste 6 Noroeste 0 -- -- 84
2019-09-28 10:00:00 8.9 2 Oeste 4 Oeste 0 -- -- 95
2019-09-28 09:00:00 5.3 2 Este 2 Este 0 -- -- 99
2019-09-28 08:00:00 4.3 0 Calma 2 Noroeste 0 -- -- 97
2019-09-28 07:00:00 5.3 0 Calma 3 Sudeste 0 -- -- 98
2019-09-28 06:00:00 5 0 Calma 5 Este 0 -- -- 96
2019-09-28 05:00:00 6.6 2 Este 6 Sudeste 0 -- -- 95
2019-09-28 04:00:00 6.6 0 Calma 4 Este 0 -- -- 90
2019-09-28 03:00:00 6.6 0 Calma 5 Oeste 0 -- -- 91
2019-09-28 02:00:00 8.1 0 Calma 7 Oeste 0 -- -- 89
2019-09-28 01:00:00 9.4 2 Sudeste 12 Sudeste 0 -- -- 83
2019-09-28 00:00:00 9.3 3 Sudeste 7 Sudeste 0 -- -- 79
2019-09-27 23:00:00 10.3 0 Calma 3 Este 0 -- -- 74
2019-09-27 22:00:00 11.3 0 Calma 7 Noroeste 0 -- -- 69
2019-09-27 21:00:00 14 5 Noroeste 9 Noroeste 0 -- -- 60
2019-09-27 20:00:00 17.3 6 Norte 18 Noroeste 0 -- -- 46
2019-09-27 19:00:00 19.2 12 Noroeste 33 Noroeste 0 -- -- 37
2019-09-27 18:00:00 20.8 18 Noroeste 33 Oeste 0 -- -- 32
2019-09-27 17:00:00 20.6 23 Oeste 36 Oeste 0 -- -- 31
2019-09-27 16:00:00 20.7 22 Oeste 37 Oeste 0 -- -- 32
2019-09-27 15:00:00 20.2 21 Oeste 34 Noroeste 0 -- -- 35
2019-09-27 14:00:00 19.3 17 Noroeste 28 Noroeste 0 -- -- 43
2019-09-27 13:00:00 18.2 17 Noroeste 26 Noroeste 0 -- -- 39
2019-09-27 12:00:00 16.7 16 Oeste 24 Oeste 0 -- -- 49
2019-09-27 11:00:00 13 5 Oeste 10 Oeste 0 -- -- 74
2019-09-27 10:00:00 8.1 2 Oeste 5 Oeste 0 -- -- 86
2019-09-27 09:00:00 6.3 0 Calma 7 Noroeste 0 -- -- 93
2019-09-27 08:00:00 4.2 0 Calma -- -- 0 -- -- 94
2019-09-27 07:00:00 5 0 Calma -- -- 0 -- -- 92
2019-09-27 06:00:00 5.3 0 Calma -- -- 0 -- -- 92
2019-09-27 05:00:00 5.6 0 Calma -- -- 0 -- -- 92
2019-09-27 04:00:00 6.3 0 Calma -- -- 0 -- -- 87
2019-09-27 03:00:00 6.6 0 Calma -- -- 0 -- -- 87
2019-09-27 02:00:00 7.8 0 Calma 2 Este 0 -- -- 85
2019-09-27 01:00:00 8 0 Calma 3 Este 0 -- -- 84
2019-09-27 00:00:00 9.4 2 Noroeste 2 Noroeste 0 -- -- 78
2019-09-26 23:00:00 10.4 0 Calma 8 Noroeste 0 -- -- 75
2019-09-26 22:00:00 12.6 5 Noroeste 8 Noroeste 0 -- -- 68
2019-09-26 21:00:00 15.1 2 Sudoeste 10 Norte 0 -- -- 61
2019-09-26 20:00:00 18.6 9 Norte 19 Noroeste 0 -- -- 44
2019-09-26 19:00:00 20.9 13 Oeste 24 Oeste 0 -- -- 43
2019-09-26 18:00:00 21.5 18 Noroeste 29 Noroeste 0 -- -- 43
2019-09-26 17:00:00 21.8 17 Noroeste 32 Oeste 0 -- -- 44
2019-09-26 16:00:00 21.8 16 Noroeste 29 Sudoeste 0 -- -- 45
2019-09-26 15:00:00 20.9 19 Oeste 30 Noroeste 0 -- -- 50
2019-09-26 14:00:00 20 18 Noroeste 28 Oeste 0 -- -- 55
2019-09-26 13:00:00 18.5 15 Noroeste 25 Noroeste 0 -- -- 59
2019-09-26 12:00:00 16.9 11 Noroeste 20 Noroeste 0 -- -- 65
2019-09-26 11:00:00 14.7 6 Oeste 11 Oeste 0 -- -- 75
2019-09-26 10:00:00 10 0 Calma 4 Sudoeste 0 -- -- 94
2019-09-26 09:00:00 7.2 3 Noroeste 6 Noroeste 0 -- -- 97
2019-09-26 08:00:00 6.5 3 Noroeste 5 Noroeste 0 -- -- 98
2019-09-26 07:00:00 6.3 3 Noroeste 5 Noroeste 0 -- -- 97
2019-09-26 06:00:00 6.4 2 Noroeste 3 Noroeste 0 -- -- 97
2019-09-26 05:00:00 6.5 2 Noroeste 3 Noroeste 0 -- -- 97
2019-09-26 04:00:00 6.8 0 Calma 3 Noroeste 0 -- -- 96
2019-09-26 03:00:00 7.2 2 Noroeste 3 Noroeste 0 -- -- 95
2019-09-26 02:00:00 7.5 0 Calma 4 Noroeste 0 -- -- 94
2019-09-26 01:00:00 8.1 2 Norte 4 Noroeste 0 -- -- 91
2019-09-26 00:00:00 9.1 0 Calma 5 Sudeste 0 -- -- 89
2019-09-25 23:00:00 9.9 0 Calma 10 Noroeste 0 -- -- 87
2019-09-25 22:00:00 11.1 6 Noroeste 9 Oeste 0 -- -- 82
2019-09-25 21:00:00 12.7 4 Noroeste 12 Norte 0 -- -- 73
2019-09-25 20:00:00 14.1 7 Norte 21 Noroeste 0 -- -- 69
2019-09-25 19:00:00 15.6 14 Noroeste 23 Oeste 0 -- -- 64
2019-09-25 18:00:00 16 17 Oeste 25 Oeste 0 -- -- 62
2019-09-25 17:00:00 16.1 14 Oeste 26 Oeste 0 -- -- 63
2019-09-25 16:00:00 16.8 17 Noroeste 28 Oeste 0 -- -- 59
2019-09-25 15:00:00 16.6 16 Oeste 26 Noroeste 0 -- -- 60
2019-09-25 14:00:00 15.4 12 Oeste 24 Noroeste 0 -- -- 63
2019-09-25 13:00:00 14.4 9 Noroeste 18 Oeste 0 -- -- 65
2019-09-25 12:00:00 13 6 Oeste 16 Noroeste 0 -- -- 68
2019-09-25 11:00:00 10.9 6 Oeste 10 Oeste 0 -- -- 77
2019-09-25 10:00:00 7.5 3 Oeste 6 Oeste 0 -- -- 95
2019-09-25 09:00:00 6 2 Oeste 6 Noroeste 0 -- -- 94
2019-09-25 08:00:00 6.5 2 Norte 8 Norte 0 -- -- 92
2019-09-25 07:00:00 7.8 5 Norte 10 Noroeste 0 -- -- 88
2019-09-25 06:00:00 8.9 6 Noroeste 18 Noroeste 0 -- -- 88
2019-09-25 05:00:00 9.8 10 Noroeste 16 Noroeste 0 -- -- 88
2019-09-25 04:00:00 10.8 13 Noroeste 19 Noroeste 0 -- -- 86
2019-09-25 03:00:00 11.2 8 Noroeste 15 Oeste 0 -- -- 82
2019-09-25 02:00:00 11.9 11 Noroeste 17 Noroeste 0 -- -- 81
2019-09-25 01:00:00 12.2 10 Noroeste 17 Noroeste 0 -- -- 85
2019-09-25 00:00:00 12.9 12 Noroeste 17 Noroeste 0 -- -- 83
2019-09-24 23:00:00 14.2 10 Noroeste 17 Noroeste 0 -- -- 78
2019-09-24 22:00:00 13.8 6 Oeste 15 Noroeste 0 -- -- 78
2019-09-24 21:00:00 15.1 9 Noroeste 25 Noroeste 0 -- -- 72
2019-09-24 20:00:00 16.4 14 Noroeste 48 Oeste 0 -- -- 70
2019-09-24 19:00:00 17.5 20 Noroeste 54 Oeste 0 -- -- 72
2019-09-24 18:00:00 17.7 24 Noroeste 46 Oeste 0 -- -- 73
2019-09-24 17:00:00 16.6 18 Noroeste 32 Oeste 0 -- -- 81
2019-09-24 16:00:00 14.6 9 Noroeste 19 Noroeste 0 -- -- 86
2019-09-24 15:00:00 13.8 8 Noroeste 18 Noroeste 0 -- -- 87
2019-09-24 14:00:00 13 9 Noroeste 18 Noroeste 0 -- -- 90
2019-09-24 13:00:00 12.3 12 Noroeste 21 Noroeste 0 -- -- 92
2019-09-24 12:00:00 11.7 12 Noroeste 28 Oeste 0 -- -- 94
2019-09-24 11:00:00 12.3 18 Noroeste 26 Noroeste 0 -- -- 87
2019-09-24 10:00:00 12.8 15 Noroeste 22 Oeste 0 -- -- 81
2019-09-24 09:00:00 9.1 8 Noroeste 14 Oeste 0 -- -- 95
2019-09-24 08:00:00 8.2 6 Noroeste 12 Oeste 0 -- -- 93
2019-09-24 07:00:00 7 8 Oeste 11 Oeste 0 -- -- 96
2019-09-24 06:00:00 7.6 6 Noroeste 12 Oeste 0 -- -- 97
2019-09-24 05:00:00 7.9 5 Noroeste 9 Oeste 0 -- -- 96
2019-09-24 04:00:00 7.8 6 Oeste 9 Oeste 0 -- -- 96
2019-09-24 03:00:00 7.8 6 Oeste 10 Oeste 0 -- -- 96
2019-09-24 02:00:00 8.4 5 Oeste 9 Oeste 0 -- -- 95
2019-09-24 01:00:00 9.1 5 Noroeste 7 Noroeste 0 -- -- 92
2019-09-24 00:00:00 9.6 4 Oeste 11 Oeste 0 -- -- 91
2019-09-23 23:00:00 10.7 6 Oeste 9 Oeste 0 -- -- 87
2019-09-23 22:00:00 12.8 5 Oeste 11 Norte 0 -- -- 75
2019-09-23 21:00:00 14.3 8 Noroeste 17 Noroeste 0 -- -- 68
2019-09-23 20:00:00 15.6 11 Noroeste 20 Noroeste 0 -- -- 62
2019-09-23 19:00:00 17.3 12 Noroeste 20 Noroeste 0 -- -- 59
2019-09-23 18:00:00 18 12 Oeste 28 Oeste 0 -- -- 53
2019-09-23 17:00:00 17.7 17 Oeste 27 Oeste 0 -- -- 55
2019-09-23 16:00:00 16.9 13 Oeste 26 Oeste 0 -- -- 59
2019-09-23 15:00:00 15.8 10 Noroeste 25 Noroeste 0 -- -- 65
2019-09-23 14:00:00 14.4 13 Oeste 25 Noroeste 0 -- -- 70
2019-09-23 13:00:00 13.3 17 Noroeste 25 Noroeste 0 -- -- 71
2019-09-23 12:00:00 12.7 8 Noroeste 18 Noroeste 0 -- -- 77
2019-09-23 11:00:00 8.8 2 Oeste 6 Oeste 0 -- -- 99
2019-09-23 10:00:00 6 3 Oeste 6 Oeste 0 -- -- 99
2019-09-23 09:00:00 4.4 3 Noroeste 4 Noroeste 0 -- -- 99
2019-09-23 08:00:00 3 0 Calma 5 Oeste 0 -- -- 97
2019-09-23 07:00:00 3.4 2 Noroeste 4 Noroeste 0 -- -- 98
2019-09-23 06:00:00 3.8 0 Calma 3 Oeste 0 -- -- 97
2019-09-23 05:00:00 4.1 0 Calma 3 Noroeste 0 -- -- 97
2019-09-23 04:00:00 4 0 Calma 2 Oeste 0 -- -- 96
2019-09-23 03:00:00 4.6 0 Calma 3 Noroeste 0 -- -- 95
2019-09-23 02:00:00 5 0 Calma 2 Oeste 0 -- -- 94
2019-09-23 01:00:00 5.6 0 Calma 2 Norte 0 -- -- 92
2019-09-23 00:00:00 6.5 0 Calma 4 Oeste 0 -- -- 91
2019-09-22 23:00:00 7.5 0 Calma 3 Nordeste 0 -- -- 87
2019-09-22 22:00:00 9.2 0 Calma 7 Oeste 0 -- -- 80
2019-09-22 21:00:00 11.3 5 Oeste 12 Noroeste 0 -- -- 71
2019-09-22 20:00:00 13.6 5 Noroeste 18 Noroeste 0 -- -- 65
2019-09-22 19:00:00 14.5 17 Noroeste 32 Oeste 0 -- -- 60
2019-09-22 18:00:00 15.5 15 Noroeste 32 Oeste 0 -- -- 61
2019-09-22 17:00:00 14.5 17 Noroeste 38 Oeste 0 -- -- 66
2019-09-22 16:00:00 14.5 22 Oeste 33 Noroeste 0 -- -- 68
2019-09-22 15:00:00 13.3 18 Oeste 37 Oeste 0 -- -- 72
2019-09-22 14:00:00 13.5 17 Oeste 31 Noroeste 0 -- -- 77
2019-09-22 13:00:00 11.8 15 Noroeste 32 Oeste 0 -- -- 87
2019-09-22 12:00:00 10.6 19 Oeste 28 Oeste 0 -- -- 92
2019-09-22 11:00:00 10 10 Noroeste 26 Noroeste 0 -- -- 97
2019-09-22 10:00:00 9.7 17 Oeste 31 Oeste 0 -- -- 98
2019-09-22 09:00:00 9.6 16 Noroeste 26 Noroeste 0 -- -- 98
2019-09-22 08:00:00 9.8 15 Oeste 27 Oeste 0.2 -- -- 96
2019-09-22 07:00:00 10.5 8 Oeste 27 Oeste 0.8 -- -- 98
2019-09-22 06:00:00 11.4 19 Noroeste 48 Oeste 0.8 -- -- 96
2019-09-22 05:00:00 13.7 9 Oeste 19 Oeste 1 -- -- 92
2019-09-22 04:00:00 14.6 12 Oeste 23 Oeste 0.4 -- -- 85
2019-09-22 03:00:00 14.4 3 Nordeste 13 Norte 0 -- -- 88
2019-09-22 02:00:00 14.8 8 Noroeste 28 Oeste 0 -- -- 84
2019-09-22 01:00:00 15.1 12 Oeste 28 Oeste 0 -- -- 83
2019-09-22 00:00:00 15.2 12 Oeste 32 Oeste 0 -- -- 83
2019-09-21 23:00:00 15.1 11 Oeste 24 Oeste 0 -- -- 84
2019-09-21 22:00:00 14.6 8 Oeste 26 Oeste 0 -- -- 87
2019-09-21 21:00:00 14.3 5 Norte 17 Oeste 0 -- -- 87
2019-09-21 20:00:00 14.2 6 Noroeste 21 Oeste 0 -- -- 87
2019-09-21 19:00:00 14 9 Noroeste 27 Oeste 0.2 -- -- 93
2019-09-21 18:00:00 14.6 11 Oeste 24 Oeste 0 -- -- 89
2019-09-21 17:00:00 16 17 Sudoeste 33 Oeste 0 -- -- 77
2019-09-21 16:00:00 17 17 Oeste 30 Oeste 0 -- -- 72
2019-09-21 15:00:00 16.6 14 Oeste 29 Sudoeste 0 -- -- 73
2019-09-21 14:00:00 16.7 15 Sudoeste 28 Oeste 0 -- -- 68
2019-09-21 13:00:00 16.7 16 Sudoeste 28 Oeste 0 -- -- 72
2019-09-21 12:00:00 16.1 17 Sudoeste 26 Sudoeste 0 -- -- 74
2019-09-21 11:00:00 15.4 10 Sudoeste 23 Sudoeste 0 -- -- 80
2019-09-21 10:00:00 13.6 3 Sudeste 7 Nordeste 0 -- -- 94
2019-09-21 09:00:00 12.1 2 Sudeste 11 Noroeste 0 -- -- 97
2019-09-21 08:00:00 12.1 3 Sudeste 8 Nordeste 0.6 -- -- 95
2019-09-21 07:00:00 11.8 5 Noroeste 17 Oeste 0.6 -- -- 97
2019-09-21 06:00:00 11.4 4 Norte 10 Noroeste 0 -- -- 98
2019-09-21 05:00:00 11.2 3 Norte 13 Sudoeste 0 -- -- 97
2019-09-21 04:00:00 11 2 Este 8 Nordeste 0 -- -- 96
2019-09-21 03:00:00 11.5 7 Este 10 Este 0 -- -- 95
2019-09-21 02:00:00 12.8 8 Norte 15 Norte 2.6 -- -- 90
2019-09-21 01:00:00 12.8 6 Norte 30 Oeste 3.6 -- -- 93
2019-09-21 00:00:00 13.1 15 Este 25 Este 0 -- -- 96
2019-09-20 23:00:00 13 22 Sudeste 30 Sudeste 0 -- -- 95
2019-09-20 22:00:00 13.1 20 Este 32 Sudeste 0 -- -- 94
2019-09-20 21:00:00 13.5 11 Sudeste 38 Sudeste 0 -- -- 90
2019-09-20 20:00:00 13.9 27 Sudeste 54 Sudeste 6 -- -- 86
2019-09-20 19:00:00 16.9 6 Sudeste 22 Norte 0.8 -- -- 84
2019-09-20 18:00:00 20.3 7 Sudoeste 33 Sudoeste 0 -- -- 61
2019-09-20 17:00:00 21.2 14 Sudeste 39 Sudeste 0 -- -- 56
2019-09-20 16:00:00 21.3 14 Sudeste 29 Sudeste 0 -- -- 57
2019-09-20 15:00:00 21.3 19 Sudoeste 29 Sudoeste 0 -- -- 56
2019-09-20 14:00:00 20.6 10 Sur 23 Sur 0 -- -- 59
2019-09-20 13:00:00 21.8 13 Sur 26 Sur 0 -- -- 54
2019-09-20 12:00:00 20.8 13 Sudeste 27 Sudeste 0 -- -- 61
2019-09-20 11:00:00 18.8 19 Sudeste 27 Sudeste 0 -- -- 68
2019-09-20 10:00:00 16.1 7 Sudeste 12 Sudeste 0 -- -- 90
2019-09-20 09:00:00 11.7 4 Este 9 Este 0 -- -- 99
2019-09-20 08:00:00 10.5 0 Calma 6 Sudeste 0 -- -- 98
2019-09-20 07:00:00 10.1 0 Calma 6 Oeste 0 -- -- 97
2019-09-20 06:00:00 11 0 Calma 9 Oeste 0 -- -- 98
2019-09-20 05:00:00 10.7 2 Norte 12 Sudoeste 0 -- -- 97
2019-09-20 04:00:00 10.8 4 Este 8 Este 0 -- -- 97
2019-09-20 03:00:00 11.6 3 Este 7 Sudoeste 0 -- -- 97
2019-09-20 02:00:00 12.2 4 Este 9 Este 0 -- -- 95
2019-09-20 01:00:00 12.7 5 Este 13 Sudeste 0 -- -- 94
2019-09-20 00:00:00 13.9 7 Sudeste 12 Este 0 -- -- 94
2019-09-19 23:00:00 14.8 5 Sudeste 22 Este 0 -- -- 91
2019-09-19 22:00:00 15.9 15 Sudeste 21 Este 0 -- -- 88
2019-09-19 21:00:00 16.7 13 Este 22 Este 0 -- -- 84
2019-09-19 20:00:00 18 13 Este 25 Sudeste 0 -- -- 79
2019-09-19 19:00:00 19.6 17 Sudeste 25 Sudeste 0 -- -- 69
2019-09-19 18:00:00 19.7 15 Sudeste 23 Sudeste 0 -- -- 67
2019-09-19 17:00:00 20.1 15 Sudeste 22 Sudeste 0 -- -- 67
2019-09-19 16:00:00 20.1 11 Sudeste 17 Sudeste 0 -- -- 64
2019-09-19 15:00:00 20.3 4 Noroeste 14 Sur 0 -- -- 56
2019-09-19 14:00:00 -- -- -- -- -- -- -- -- --
2019-09-19 13:00:00 -- -- -- -- -- -- -- -- --
2019-09-19 12:00:00 -- -- -- -- -- -- -- -- --
2019-09-19 11:00:00 -- -- -- -- -- -- -- -- --
2019-09-19 10:00:00 -- -- -- -- -- -- -- -- --
2019-09-19 09:00:00 -- -- -- -- -- -- -- -- --
2019-09-19 08:00:00 -- -- -- -- -- -- -- -- --
2019-09-19 07:00:00 -- -- -- -- -- -- -- -- --
2019-09-19 06:00:00 -- -- -- -- -- -- -- -- --
2019-09-19 05:00:00 -- -- -- -- -- -- -- -- --
2019-09-19 04:00:00 -- -- -- -- -- -- -- -- --
2019-09-19 03:00:00 -- -- -- -- -- -- -- -- --
2019-09-19 02:00:00 -- -- -- -- -- -- -- -- --
2019-09-19 01:00:00 -- -- -- -- -- -- -- -- --
2019-09-19 00:00:00 -- -- -- -- -- -- -- -- --
2019-09-18 23:00:00 -- -- -- -- -- -- -- -- --
2019-09-18 22:00:00 -- -- -- -- -- -- -- -- --
2019-09-18 21:00:00 -- -- -- -- -- -- -- -- --
2019-09-18 20:00:00 -- -- -- -- -- -- -- -- --
2019-09-18 19:00:00 -- -- -- -- -- -- -- -- --
2019-09-18 18:00:00 -- -- -- -- -- -- -- -- --
2019-09-18 17:00:00 -- -- -- -- -- -- -- -- --
2019-09-18 16:00:00 -- -- -- -- -- -- -- -- --
2019-09-18 15:00:00 -- -- -- -- -- -- -- -- --
2019-09-18 14:00:00 -- -- -- -- -- -- -- -- --
2019-09-18 13:00:00 -- -- -- -- -- -- -- -- --
2019-09-18 12:00:00 -- -- -- -- -- -- -- -- --
2019-09-18 11:00:00 -- -- -- -- -- -- -- -- --
2019-09-18 10:00:00 -- -- -- -- -- -- -- -- --
2019-09-18 09:00:00 -- -- -- -- -- -- -- -- --
2019-09-18 08:00:00 -- -- -- -- -- -- -- -- --
2019-09-18 07:00:00 -- -- -- -- -- -- -- -- --
2019-09-18 06:00:00 -- -- -- -- -- -- -- -- --
2019-09-18 05:00:00 -- -- -- -- -- -- -- -- --
2019-09-18 04:00:00 -- -- -- -- -- -- -- -- --
2019-09-18 03:00:00 -- -- -- -- -- -- -- -- --
2019-09-18 02:00:00 -- -- -- -- -- -- -- -- --
2019-09-18 01:00:00 -- -- -- -- -- -- -- -- --
2019-09-18 00:00:00 -- -- -- -- -- -- -- -- --